TimeMST,TemperatureF,Dew PointF,Humidity,Sea Level PressureIn,VisibilityMPH,Wind Direction,Wind SpeedMPH,Gust SpeedMPH,PrecipitationIn,Events,Conditions,WindDirDegrees,DateUTC
1:53 AM,48.0,23.0,37,29.82,10.0,South,5.8,-,N/A,,Clear,190,2014-04-28 08:53:00
3:53 AM,44.1,24.1,45,29.83,10.0,SSW,8.1,-,N/A,,Clear,200,2014-04-28 10:53:00
4:53 AM,48.9,23.0,36,29.83,10.0,WSW,11.5,-,N/A,,Clear,250,2014-04-28 11:53:00
5:53 AM,48.0,24.1,39,29.85,10.0,Calm,Calm,-,N/A,,Clear,0,2014-04-28 12:53:00
6:53 AM,48.9,25.0,39,29.88,10.0,Calm,Calm,-,N/A,,Clear,0,2014-04-28 13:53:00
7:53 AM,54.0,26.1,34,29.90,10.0,NNE,6.9,-,N/A,,Clear,30,2014-04-28 14:53:00
8:53 AM,57.9,26.1,30,29.91,10.0,North,8.1,-,N/A,,Clear,10,2014-04-28 15:53:00
9:53 AM,61.0,21.9,22,29.90,10.0,North,13.8,-,N/A,,Clear,350,2014-04-28 16:53:00
10:53 AM,63.0,21.0,20,29.91,10.0,North,15.0,26.5,N/A,,Clear,350,2014-04-28 17:53:00
11:53 AM,66.0,21.0,18,29.90,10.0,North,15.0,-,N/A,,Clear,350,2014-04-28 18:53:00
12:53 PM,66.9,21.9,18,29.88,10.0,NW,19.6,27.6,N/A,,Clear,320,2014-04-28 19:53:00
2:53 PM,68.0,19.9,16,29.88,10.0,NNW,15.0,24.2,N/A,,Clear,340,2014-04-28 21:53:00
3:53 PM,69.1,17.1,14,29.86,10.0,NNW,17.3,31.1,N/A,,Clear,340,2014-04-28 22:53:00
4:53 PM,68.0,15.1,13,29.86,10.0,NNW,19.6,28.8,N/A,,Clear,340,2014-04-28 23:53:00
5:53 PM,66.0,6.1,9,29.87,10.0,NNW,21.9,28.8,N/A,,Clear,340,2014-04-29 00:53:00
6:53 PM,63.0,12.0,14,29.88,10.0,NNW,11.5,-,N/A,,Clear,330,2014-04-29 01:53:00
7:53 PM,57.9,14.0,18,29.91,10.0,North,21.9,-,N/A,,Clear,360,2014-04-29 02:53:00
8:53 PM,55.0,12.9,19,29.96,10.0,North,12.7,-,N/A,,Clear,360,2014-04-29 03:53:00
9:53 PM,53.1,12.0,20,29.98,10.0,North,17.3,-,N/A,,Clear,360,2014-04-29 04:53:00
10:53 PM,50.0,14.0,24,30.00,10.0,North,13.8,-,N/A,,Clear,360,2014-04-29 05:53:00
11:53 PM,48.0,12.9,24,30.02,10.0,North,9.2,-,N/A,,Clear,360,2014-04-29 06:53:00